createdAt,value
2022-10-25T00:02:00.606Z,13.96
2022-10-25T00:05:03.753Z,13.96
2022-10-25T00:08:06.258Z,13.95
2022-10-25T00:11:14.379Z,13.93
2022-10-25T00:14:19.157Z,13.93
2022-10-25T00:17:21.392Z,13.88
2022-10-25T00:20:23.378Z,13.91
2022-10-25T00:23:25.137Z,13.84
2022-10-25T00:26:27.545Z,13.75
2022-10-25T00:29:29.411Z,13.69
2022-10-25T00:32:31.324Z,13.65
2022-10-25T00:35:36.302Z,13.63
2022-10-25T00:38:39.085Z,13.60
2022-10-25T00:41:45.728Z,13.56
2022-10-25T00:45:01.877Z,13.48
2022-10-25T00:48:05.362Z,13.50
2022-10-25T00:51:07.452Z,13.55
2022-10-25T00:54:11.990Z,13.53
2022-10-25T00:57:17.106Z,13.33
2022-10-25T01:00:19.791Z,13.24
2022-10-25T01:03:23.291Z,13.12
2022-10-25T01:06:58.121Z,13.10
2022-10-25T01:10:00.116Z,13.15
2022-10-25T01:13:02.473Z,13.19
2022-10-25T01:16:33.415Z,13.10
2022-10-25T01:20:14.311Z,12.98
2022-10-25T01:23:42.270Z,12.86
2022-10-25T01:27:11.352Z,12.99
2022-10-25T01:30:20.717Z,12.96
2022-10-25T01:33:33.262Z,12.98
2022-10-25T01:36:41.116Z,13.02
2022-10-25T01:39:53.972Z,12.99
2022-10-25T01:42:58.625Z,12.95
2022-10-25T01:46:18.711Z,12.92
2022-10-25T01:49:27.855Z,12.85
2022-10-25T01:52:29.903Z,12.88
2022-10-25T01:55:35.198Z,12.88
2022-10-25T01:58:49.154Z,13.00
2022-10-25T02:02:10.835Z,12.89
2022-10-25T02:05:58.114Z,12.88
2022-10-25T02:09:30.680Z,12.92
2022-10-25T02:12:40.968Z,12.97
2022-10-25T02:15:51.749Z,12.91
2022-10-25T02:19:03.104Z,12.96
2022-10-25T02:22:08.404Z,12.69
2022-10-25T02:25:10.452Z,12.71
2022-10-25T02:28:13.347Z,12.65
2022-10-25T02:31:17.756Z,12.65
2022-10-25T02:34:19.653Z,12.62
2022-10-25T02:37:21.461Z,12.72
2022-10-25T02:40:23.232Z,12.74
2022-10-25T02:43:24.975Z,12.80
2022-10-25T02:46:26.781Z,12.80
2022-10-25T02:49:28.745Z,12.97
2022-10-25T02:52:31.347Z,12.95
2022-10-25T02:55:33.192Z,12.97
2022-10-25T02:58:36.665Z,12.99
2022-10-25T03:01:54.817Z,13.00
2022-10-25T03:04:56.574Z,13.00
2022-10-25T03:07:58.282Z,13.05
2022-10-25T03:11:00.135Z,13.08
2022-10-25T03:14:01.829Z,13.05
2022-10-25T03:17:03.583Z,13.14
2022-10-25T03:20:05.806Z,13.10
2022-10-25T03:23:07.797Z,13.01
2022-10-25T03:26:09.482Z,13.02
2022-10-25T03:29:11.259Z,13.02
2022-10-25T03:32:13.297Z,13.01
2022-10-25T03:35:15.170Z,12.93
2022-10-25T03:38:17.160Z,12.90
2022-10-25T03:41:18.854Z,12.97
2022-10-25T03:44:20.716Z,13.06
2022-10-25T03:47:22.497Z,13.15
2022-10-25T03:50:24.257Z,13.03
2022-10-25T03:53:26.105Z,13.04
2022-10-25T03:56:27.802Z,13.02
2022-10-25T03:59:29.490Z,13.06
2022-10-25T04:02:31.252Z,13.04
2022-10-25T04:05:33.153Z,13.02
2022-10-25T04:08:34.906Z,13.06
2022-10-25T04:11:36.689Z,13.12
2022-10-25T04:14:38.374Z,13.20
2022-10-25T04:17:40.212Z,13.21
2022-10-25T04:20:41.944Z,13.26
2022-10-25T04:23:43.687Z,13.23
2022-10-25T04:26:45.525Z,13.18
2022-10-25T04:29:47.291Z,13.15
2022-10-25T04:32:49.804Z,13.19
2022-10-25T04:35:58.140Z,13.17
2022-10-25T04:39:00.338Z,13.11
2022-10-25T04:42:02.180Z,13.08
2022-10-25T04:45:04.426Z,13.05
2022-10-25T04:48:06.456Z,13.04
2022-10-25T04:51:09.688Z,12.98
2022-10-25T04:54:14.855Z,12.94
2022-10-25T04:57:16.795Z,12.89
2022-10-25T05:00:18.704Z,12.72
2022-10-25T05:03:21.275Z,12.43
2022-10-25T05:06:25.698Z,12.39
2022-10-25T05:09:27.744Z,12.44
2022-10-25T05:12:29.401Z,12.41
2022-10-25T05:15:31.137Z,12.48
2022-10-25T05:18:33.907Z,12.40
2022-10-25T05:21:35.795Z,12.34
2022-10-25T05:24:37.677Z,12.33
2022-10-25T05:27:39.492Z,12.47
2022-10-25T05:30:42.766Z,12.56
2022-10-25T05:33:45.444Z,12.53
2022-10-25T05:36:47.411Z,12.52
2022-10-25T05:39:49.163Z,12.53
2022-10-25T05:42:51.066Z,12.54
2022-10-25T05:46:01.979Z,12.56
2022-10-25T05:49:04.202Z,12.60
2022-10-25T05:52:07.034Z,12.62
2022-10-25T05:55:09.458Z,12.56
2022-10-25T05:58:11.198Z,12.52
2022-10-25T06:01:17.564Z,12.40
2022-10-25T06:04:19.438Z,12.32
2022-10-25T06:07:21.163Z,12.28
2022-10-25T06:10:23.145Z,12.30
2022-10-25T06:13:24.914Z,12.13
2022-10-25T06:16:26.850Z,12.23
2022-10-25T06:19:28.582Z,12.12
2022-10-25T06:22:30.751Z,12.11
2022-10-25T06:25:32.563Z,12.31
2022-10-25T06:28:35.169Z,12.38
2022-10-25T06:31:36.983Z,12.28
2022-10-25T06:34:38.815Z,12.22
2022-10-25T06:37:40.653Z,12.18
2022-10-25T06:40:42.410Z,12.13
2022-10-25T06:43:48.994Z,12.27
2022-10-25T06:50:12.659Z,12.36
2022-10-25T06:53:14.810Z,12.45
2022-10-25T06:56:16.761Z,12.44
2022-10-25T06:59:20.578Z,12.43
2022-10-25T07:02:22.639Z,12.36
2022-10-25T07:05:25.358Z,12.41
2022-10-25T07:08:27.136Z,12.48
2022-10-25T07:11:31.296Z,12.65
2022-10-25T07:14:33.057Z,12.87
2022-10-25T07:17:34.975Z,13.35
2022-10-25T07:20:36.902Z,13.80
2022-10-25T07:23:42.498Z,14.21
2022-10-25T07:26:44.414Z,14.49
2022-10-25T07:29:46.269Z,14.32
2022-10-25T07:32:48.024Z,14.43
2022-10-25T07:36:09.932Z,14.50
2022-10-25T07:39:12.792Z,14.55
2022-10-25T07:42:14.540Z,14.42
2022-10-25T07:45:20.309Z,14.36
2022-10-25T07:48:25.506Z,14.47
2022-10-25T07:51:27.388Z,14.59
2022-10-25T07:54:29.216Z,14.93
2022-10-25T07:57:33.827Z,15.23
2022-10-25T08:00:36.964Z,15.40
2022-10-25T08:03:38.949Z,15.39
2022-10-25T08:06:42.000Z,15.08
2022-10-25T08:09:44.302Z,15.47
2022-10-25T08:12:46.902Z,15.77
2022-10-25T08:15:53.347Z,16.03
2022-10-25T08:18:55.510Z,16.34
2022-10-25T08:21:58.719Z,16.16
2022-10-25T08:25:00.989Z,16.19
2022-10-25T08:28:02.872Z,15.85
2022-10-25T08:31:05.575Z,15.85
2022-10-25T08:34:08.277Z,16.11
2022-10-25T08:37:13.173Z,16.19
2022-10-25T08:40:32.025Z,16.20
2022-10-25T08:43:55.968Z,16.03
2022-10-25T08:47:10.165Z,15.79
2022-10-25T08:50:27.294Z,15.76
2022-10-25T08:53:36.720Z,16.03
2022-10-25T08:56:46.601Z,15.73
2022-10-25T08:59:55.945Z,15.91
2022-10-25T09:03:00.885Z,15.94
2022-10-25T09:06:02.807Z,16.02
2022-10-25T09:09:29.159Z,15.97
2022-10-25T09:12:42.334Z,15.64
2022-10-25T09:16:22.823Z,15.62
2022-10-25T09:19:28.164Z,15.74
2022-10-25T09:22:46.593Z,15.45
2022-10-25T09:26:21.660Z,15.27
2022-10-25T09:29:33.041Z,15.29
2022-10-25T09:32:42.334Z,15.58
2022-10-25T09:35:53.707Z,15.49
2022-10-25T09:38:59.181Z,15.45
2022-10-25T09:42:01.789Z,15.58
2022-10-25T09:45:09.384Z,15.67
2022-10-25T09:48:27.154Z,15.95
2022-10-25T09:51:38.354Z,16.05
2022-10-25T09:54:46.575Z,16.12
2022-10-25T09:57:49.106Z,16.25
2022-10-25T10:00:53.214Z,16.43
2022-10-25T10:04:00.081Z,16.36
2022-10-25T10:07:07.403Z,16.41
2022-10-25T10:10:11.173Z,16.32
2022-10-25T10:13:50.995Z,16.39
2022-10-25T10:16:55.471Z,16.47
2022-10-25T10:20:14.154Z,16.57
2022-10-25T10:23:16.366Z,16.49
2022-10-25T10:26:29.192Z,16.50
2022-10-25T10:29:33.018Z,16.63
2022-10-25T10:32:37.400Z,16.66
2022-10-25T10:35:39.762Z,16.51
2022-10-25T10:38:42.300Z,16.48
2022-10-25T10:42:17.768Z,16.41
2022-10-25T10:45:20.369Z,16.46
2022-10-25T10:48:23.318Z,16.44
2022-10-25T10:51:44.663Z,16.58
2022-10-25T10:54:48.175Z,16.65
2022-10-25T10:57:53.318Z,16.60
2022-10-25T11:01:12.977Z,16.89
2022-10-25T11:04:14.957Z,16.96
2022-10-25T11:07:31.300Z,17.17
2022-10-25T11:10:34.637Z,17.23
2022-10-25T11:13:37.722Z,17.46
2022-10-25T11:16:58.428Z,17.45
2022-10-25T11:20:09.200Z,17.38
2022-10-25T11:23:17.252Z,17.50
2022-10-25T11:26:49.793Z,17.50
2022-10-25T11:30:20.817Z,17.74
2022-10-25T11:33:51.521Z,18.01
2022-10-25T11:37:17.653Z,18.08
2022-10-25T11:40:30.344Z,18.08
2022-10-25T11:43:50.420Z,18.07
2022-10-25T11:46:58.963Z,17.96
2022-10-25T11:50:29.442Z,17.93
2022-10-25T11:53:50.303Z,18.22
2022-10-25T11:57:01.612Z,18.23
2022-10-25T12:00:16.562Z,18.17
2022-10-25T12:03:43.626Z,18.09
2022-10-25T12:06:52.680Z,18.21
2022-10-25T12:09:55.359Z,18.09
2022-10-25T12:13:23.683Z,17.72
2022-10-25T12:16:25.999Z,17.83
2022-10-25T12:19:30.604Z,17.60
2022-10-25T12:22:43.948Z,17.96
2022-10-25T12:26:08.824Z,17.63
2022-10-25T12:29:21.869Z,17.51
2022-10-25T12:32:32.622Z,17.34
2022-10-25T12:35:39.971Z,17.37
2022-10-25T12:38:43.011Z,18.24
2022-10-25T12:41:51.943Z,18.05
2022-10-25T12:44:56.936Z,17.89
2022-10-25T12:48:20.854Z,17.25
2022-10-25T12:51:28.861Z,17.18
2022-10-25T12:54:33.905Z,17.37
2022-10-25T12:57:54.851Z,17.64
2022-10-25T13:01:13.484Z,17.65
2022-10-25T13:04:27.975Z,17.52
2022-10-25T13:07:32.363Z,17.92
2022-10-25T13:10:43.431Z,18.17
2022-10-25T13:13:54.305Z,18.16
2022-10-25T13:17:18.244Z,18.06
2022-10-25T13:20:20.409Z,18.11
2022-10-25T13:23:58.634Z,17.83
2022-10-25T13:27:12.864Z,17.76
2022-10-25T13:30:27.364Z,17.49
2022-10-25T13:33:33.454Z,17.52
2022-10-25T13:36:56.791Z,17.93
2022-10-25T13:40:06.965Z,17.89
2022-10-25T13:43:20.589Z,17.76
2022-10-25T13:46:38.191Z,17.97
2022-10-25T13:49:43.793Z,17.77
2022-10-25T13:53:25.172Z,17.60
2022-10-25T13:56:30.082Z,17.26
2022-10-25T13:59:58.751Z,17.16
2022-10-25T14:03:09.931Z,17.16
2022-10-25T14:06:22.838Z,17.12
2022-10-25T14:09:27.808Z,16.79
2022-10-25T14:12:31.369Z,16.80
2022-10-25T14:16:04.238Z,16.75
2022-10-25T14:19:15.346Z,16.58
2022-10-25T14:22:25.234Z,16.67
2022-10-25T14:25:40.211Z,16.52
2022-10-25T14:28:42.480Z,16.42
2022-10-25T14:31:45.781Z,16.50
2022-10-25T14:34:51.774Z,16.26
2022-10-25T14:37:54.917Z,16.23
2022-10-25T14:41:02.603Z,16.15
2022-10-25T14:44:22.071Z,15.87
2022-10-25T14:47:27.005Z,15.85
2022-10-25T14:50:29.849Z,15.88
2022-10-25T14:53:31.817Z,15.95
2022-10-25T14:56:40.200Z,15.95
2022-10-25T14:59:51.655Z,15.94
2022-10-25T15:02:57.166Z,15.94
2022-10-25T15:05:59.628Z,15.88
2022-10-25T15:09:40.726Z,15.85
2022-10-25T15:12:31.704Z,15.78
2022-10-25T15:15:40.822Z,15.56
2022-10-25T15:18:42.819Z,15.51
2022-10-25T15:21:50.524Z,15.52
2022-10-25T15:24:52.422Z,15.38
2022-10-25T15:27:55.162Z,15.12
2022-10-25T15:31:01.361Z,14.96
2022-10-25T15:34:04.769Z,14.87
2022-10-25T15:37:15.473Z,14.81
2022-10-25T15:40:18.508Z,14.64
2022-10-25T15:43:20.836Z,14.61
2022-10-25T15:46:33.792Z,14.57
2022-10-25T15:49:36.106Z,14.48
2022-10-25T15:52:38.189Z,14.44
2022-10-25T15:55:40.035Z,14.35
2022-10-25T15:58:42.399Z,14.23
2022-10-25T16:01:46.370Z,14.16
2022-10-25T16:04:48.887Z,14.00
2022-10-25T16:07:51.675Z,13.95
2022-10-25T16:10:53.930Z,13.81
2022-10-25T16:13:56.069Z,13.78
2022-10-25T16:17:01.319Z,13.74
2022-10-25T16:20:04.244Z,13.50
2022-10-25T16:23:06.461Z,13.39
2022-10-25T16:26:20.836Z,13.49
2022-10-25T16:29:25.110Z,13.40
2022-10-25T16:32:27.123Z,13.29
2022-10-25T16:35:30.074Z,13.19
2022-10-25T16:38:32.170Z,13.18
2022-10-25T16:41:39.265Z,13.18
2022-10-25T16:44:41.135Z,13.10
2022-10-25T16:47:43.348Z,13.00
2022-10-25T16:50:45.813Z,12.97
2022-10-25T16:53:48.686Z,12.98
2022-10-25T16:56:51.623Z,12.96
2022-10-25T16:59:53.977Z,12.83
2022-10-25T17:02:56.130Z,12.83
2022-10-25T17:06:00.350Z,12.92
2022-10-25T17:09:06.040Z,12.84
2022-10-25T17:12:11.929Z,12.80
2022-10-25T17:15:15.003Z,12.67
2022-10-25T17:18:21.279Z,12.64
2022-10-25T17:21:24.036Z,12.63
2022-10-25T17:24:26.357Z,12.62
2022-10-25T17:27:42.150Z,12.38
2022-10-25T17:30:44.670Z,12.44
2022-10-25T17:33:46.862Z,12.46
2022-10-25T17:39:59.451Z,12.39
2022-10-25T17:43:01.714Z,12.26
2022-10-25T17:46:26.162Z,12.19
2022-10-25T17:49:28.232Z,12.22
2022-10-25T17:52:30.665Z,12.22
2022-10-25T17:55:34.779Z,12.18
2022-10-25T17:58:39.728Z,12.18
2022-10-25T18:01:45.168Z,12.17
2022-10-25T18:05:02.159Z,12.12
2022-10-25T18:08:14.003Z,12.01
2022-10-25T18:11:22.717Z,12.04
2022-10-25T18:14:25.198Z,12.04
2022-10-25T18:17:28.003Z,12.15
2022-10-25T18:20:30.302Z,12.07
2022-10-25T18:23:33.366Z,12.00
2022-10-25T18:26:35.490Z,11.85
2022-10-25T18:29:37.885Z,11.82
2022-10-25T18:32:40.393Z,11.75
2022-10-25T18:35:42.974Z,11.71
2022-10-25T18:38:49.195Z,11.70
2022-10-25T18:41:51.257Z,11.60
2022-10-25T18:44:55.656Z,11.55
2022-10-25T18:48:01.593Z,11.61
2022-10-25T18:51:05.396Z,11.55
2022-10-25T18:54:10.752Z,11.37
2022-10-25T18:57:18.739Z,11.51
2022-10-25T19:00:26.660Z,11.56
2022-10-25T19:03:29.360Z,11.45
2022-10-25T19:06:32.066Z,11.46
2022-10-25T19:09:34.487Z,11.49
2022-10-25T19:12:36.763Z,11.51
2022-10-25T19:15:39.177Z,11.40
2022-10-25T19:18:44.249Z,11.36
2022-10-25T19:21:47.053Z,11.34
2022-10-25T19:24:50.055Z,11.29
2022-10-25T19:27:52.657Z,11.24
2022-10-25T19:30:54.819Z,11.20
2022-10-25T19:34:00.600Z,11.29
2022-10-25T19:37:04.945Z,11.39
2022-10-25T19:40:08.521Z,11.46
2022-10-25T19:43:10.395Z,11.48
2022-10-25T19:46:13.353Z,11.30
2022-10-25T19:49:15.484Z,11.19
2022-10-25T19:52:18.075Z,11.11
2022-10-25T19:55:20.394Z,11.10
2022-10-25T19:58:22.705Z,11.09
2022-10-25T20:01:27.501Z,11.00
2022-10-25T20:04:29.761Z,11.04
2022-10-25T20:07:32.440Z,10.75
2022-10-25T20:10:34.616Z,10.76
2022-10-25T20:13:37.840Z,10.85
2022-10-25T20:16:40.032Z,10.92
2022-10-25T20:19:41.933Z,10.90
2022-10-25T20:22:44.204Z,10.80
2022-10-25T20:25:46.325Z,10.66
2022-10-25T20:28:49.396Z,10.63
2022-10-25T20:31:52.005Z,10.59
2022-10-25T20:34:54.067Z,10.61
2022-10-25T20:37:56.789Z,10.65
2022-10-25T20:41:07.480Z,10.68
2022-10-25T20:44:10.115Z,10.70
2022-10-25T20:47:12.208Z,10.75
2022-10-25T20:50:14.296Z,10.74
2022-10-25T20:53:16.955Z,10.68
2022-10-25T20:56:21.072Z,10.56
2022-10-25T20:59:22.983Z,10.42
2022-10-25T21:02:25.137Z,10.42
2022-10-25T21:05:27.851Z,10.35
2022-10-25T21:08:30.291Z,10.28
2022-10-25T21:11:33.008Z,10.38
2022-10-25T21:14:34.768Z,10.27
2022-10-25T21:17:37.882Z,10.17
2022-10-25T21:20:39.889Z,10.08
2022-10-25T21:23:42.062Z,10.13
2022-10-25T21:26:44.344Z,10.14
2022-10-25T21:29:46.477Z,10.09
2022-10-25T21:32:48.703Z,10.13
2022-10-25T21:35:51.061Z,10.05
2022-10-25T21:38:55.112Z,10.21
2022-10-25T21:41:57.208Z,10.29
2022-10-25T21:44:59.044Z,10.35
2022-10-25T21:48:01.662Z,10.41
2022-10-25T21:51:04.123Z,10.43
2022-10-25T21:54:06.458Z,10.54
2022-10-25T21:57:08.746Z,10.58
2022-10-25T22:00:11.986Z,10.58
2022-10-25T22:03:17.121Z,10.56
2022-10-25T22:06:20.645Z,10.55
2022-10-25T22:09:23.519Z,10.63
2022-10-25T22:12:25.418Z,10.51
2022-10-25T22:15:27.752Z,10.54
2022-10-25T22:18:29.556Z,10.57
2022-10-25T22:21:37.883Z,10.55
2022-10-25T22:24:39.768Z,10.49
2022-10-25T22:27:41.778Z,10.48
2022-10-25T22:30:44.439Z,10.43
2022-10-25T22:33:46.347Z,10.34
2022-10-25T22:36:48.847Z,10.33
2022-10-25T22:39:50.827Z,10.30
2022-10-25T22:42:52.583Z,10.16
2022-10-25T22:45:54.930Z,10.06
2022-10-25T22:48:59.357Z,10.12
2022-10-25T22:52:01.711Z,10.08
2022-10-25T22:55:04.055Z,10.12
2022-10-25T22:58:05.846Z,10.04
2022-10-25T23:01:12.966Z,10.06
2022-10-25T23:04:14.675Z,10.13
2022-10-25T23:07:16.930Z,10.09
2022-10-25T23:10:19.033Z,10.01
2022-10-25T23:13:21.311Z,10.01
2022-10-25T23:16:24.015Z,10.02
2022-10-25T23:19:25.703Z,9.99
2022-10-25T23:22:28.675Z,10.01
2022-10-25T23:25:32.984Z,9.88
2022-10-25T23:28:36.117Z,9.87
2022-10-25T23:31:37.929Z,9.73
2022-10-25T23:34:39.982Z,9.65
2022-10-25T23:37:42.040Z,9.51
2022-10-25T23:40:46.893Z,9.36
2022-10-25T23:43:49.075Z,9.39
2022-10-25T23:46:51.051Z,9.57
2022-10-25T23:49:53.814Z,9.73
2022-10-25T23:52:55.832Z,9.70
2022-10-25T23:55:57.823Z,9.60
2022-10-25T23:58:59.663Z,9.68
